sensor_id;sensor_type;location;lat;lon;timestamp;temperature;humidity
11591;DHT22;5851;54.050;9.974;2023-09-19T00:00:25;17.90;95.40
11591;DHT22;5851;54.050;9.974;2023-09-19T00:02:53;17.90;95.50
11591;DHT22;5851;54.050;9.974;2023-09-19T00:05:20;17.90;95.60
11591;DHT22;5851;54.050;9.974;2023-09-19T00:07:50;17.90;95.80
11591;DHT22;5851;54.050;9.974;2023-09-19T00:10:19;17.90;95.70
11591;DHT22;5851;54.050;9.974;2023-09-19T00:12:47;17.80;95.80
11591;DHT22;5851;54.050;9.974;2023-09-19T00:15:15;17.80;95.80
11591;DHT22;5851;54.050;9.974;2023-09-19T00:17:43;17.90;95.90
11591;DHT22;5851;54.050;9.974;2023-09-19T00:20:11;17.80;95.90
11591;DHT22;5851;54.050;9.974;2023-09-19T00:22:40;17.70;95.90
11591;DHT22;5851;54.050;9.974;2023-09-19T00:25:08;17.70;95.90
11591;DHT22;5851;54.050;9.974;2023-09-19T00:27:37;17.80;95.90
11591;DHT22;5851;54.050;9.974;2023-09-19T00:30:08;17.80;95.90
11591;DHT22;5851;54.050;9.974;2023-09-19T00:32:40;17.70;95.70
11591;DHT22;5851;54.050;9.974;2023-09-19T00:35:07;17.70;96.00
11591;DHT22;5851;54.050;9.974;2023-09-19T00:37:36;17.80;95.80
11591;DHT22;5851;54.050;9.974;2023-09-19T00:40:03;17.70;95.70
11591;DHT22;5851;54.050;9.974;2023-09-19T00:42:31;17.80;95.90
11591;DHT22;5851;54.050;9.974;2023-09-19T00:44:59;17.80;95.90
11591;DHT22;5851;54.050;9.974;2023-09-19T00:47:29;17.80;95.80
11591;DHT22;5851;54.050;9.974;2023-09-19T00:49:58;17.80;95.90
11591;DHT22;5851;54.050;9.974;2023-09-19T00:52:25;17.70;95.90
11591;DHT22;5851;54.050;9.974;2023-09-19T00:54:54;17.70;96.00
11591;DHT22;5851;54.050;9.974;2023-09-19T00:57:21;17.70;95.90
11591;DHT22;5851;54.050;9.974;2023-09-19T00:59:50;17.70;96.30
11591;DHT22;5851;54.050;9.974;2023-09-19T01:02:19;17.70;95.70
11591;DHT22;5851;54.050;9.974;2023-09-19T01:04:47;17.70;96.00
11591;DHT22;5851;54.050;9.974;2023-09-19T01:07:16;17.70;96.10
11591;DHT22;5851;54.050;9.974;2023-09-19T01:09:43;17.60;96.20
11591;DHT22;5851;54.050;9.974;2023-09-19T01:12:12;17.60;96.20
11591;DHT22;5851;54.050;9.974;2023-09-19T01:14:47;17.60;96.30
11591;DHT22;5851;54.050;9.974;2023-09-19T01:17:24;17.60;96.00
11591;DHT22;5851;54.050;9.974;2023-09-19T01:20:11;17.70;96.10
11591;DHT22;5851;54.050;9.974;2023-09-19T01:22:50;17.70;95.90
11591;DHT22;5851;54.050;9.974;2023-09-19T01:28:30;17.60;95.90
11591;DHT22;5851;54.050;9.974;2023-09-19T01:31:04;17.60;96.00
11591;DHT22;5851;54.050;9.974;2023-09-19T01:33:56;17.60;95.80
11591;DHT22;5851;54.050;9.974;2023-09-19T01:36:28;17.60;95.80
11591;DHT22;5851;54.050;9.974;2023-09-19T01:38:57;17.60;95.80
11591;DHT22;5851;54.050;9.974;2023-09-19T01:41:41;17.60;95.70
11591;DHT22;5851;54.050;9.974;2023-09-19T01:44:12;17.50;95.80
11591;DHT22;5851;54.050;9.974;2023-09-19T01:46:45;17.50;95.80
11591;DHT22;5851;54.050;9.974;2023-09-19T01:49:20;17.60;95.80
11591;DHT22;5851;54.050;9.974;2023-09-19T01:51:53;17.60;95.90
11591;DHT22;5851;54.050;9.974;2023-09-19T01:54:27;17.50;95.80
11591;DHT22;5851;54.050;9.974;2023-09-19T01:57:01;17.50;96.00
11591;DHT22;5851;54.050;9.974;2023-09-19T01:59:35;17.50;95.90
11591;DHT22;5851;54.050;9.974;2023-09-19T02:02:06;17.50;95.90
11591;DHT22;5851;54.050;9.974;2023-09-19T02:04:34;17.50;95.70
11591;DHT22;5851;54.050;9.974;2023-09-19T02:07:02;17.50;95.90
11591;DHT22;5851;54.050;9.974;2023-09-19T02:09:31;17.40;95.90
11591;DHT22;5851;54.050;9.974;2023-09-19T02:11:59;17.40;96.10
11591;DHT22;5851;54.050;9.974;2023-09-19T02:14:26;17.40;96.10
11591;DHT22;5851;54.050;9.974;2023-09-19T02:16:55;17.40;96.10
11591;DHT22;5851;54.050;9.974;2023-09-19T02:19:23;17.40;96.20
11591;DHT22;5851;54.050;9.974;2023-09-19T02:21:52;17.40;96.20
11591;DHT22;5851;54.050;9.974;2023-09-19T02:24:19;17.30;96.10
11591;DHT22;5851;54.050;9.974;2023-09-19T02:26:46;17.40;96.10
11591;DHT22;5851;54.050;9.974;2023-09-19T02:29:13;17.40;96.00
11591;DHT22;5851;54.050;9.974;2023-09-19T02:31:39;17.40;96.00
11591;DHT22;5851;54.050;9.974;2023-09-19T02:34:08;17.40;96.00
11591;DHT22;5851;54.050;9.974;2023-09-19T02:36:37;17.40;96.00
11591;DHT22;5851;54.050;9.974;2023-09-19T02:39:05;17.30;95.90
11591;DHT22;5851;54.050;9.974;2023-09-19T02:41:34;17.30;95.90
11591;DHT22;5851;54.050;9.974;2023-09-19T02:44:01;17.30;96.00
11591;DHT22;5851;54.050;9.974;2023-09-19T02:46:28;17.30;95.90
11591;DHT22;5851;54.050;9.974;2023-09-19T02:48:55;17.30;96.00
11591;DHT22;5851;54.050;9.974;2023-09-19T02:51:22;17.20;95.90
11591;DHT22;5851;54.050;9.974;2023-09-19T02:53:51;17.30;95.90
11591;DHT22;5851;54.050;9.974;2023-09-19T02:56:20;17.20;96.00
11591;DHT22;5851;54.050;9.974;2023-09-19T02:58:48;17.20;95.90
11591;DHT22;5851;54.050;9.974;2023-09-19T03:01:15;17.20;95.90
11591;DHT22;5851;54.050;9.974;2023-09-19T03:03:44;17.10;95.90
11591;DHT22;5851;54.050;9.974;2023-09-19T03:06:11;17.20;95.90
11591;DHT22;5851;54.050;9.974;2023-09-19T03:08:39;17.10;95.80
11591;DHT22;5851;54.050;9.974;2023-09-19T03:11:09;17.10;95.80
11591;DHT22;5851;54.050;9.974;2023-09-19T03:13:37;17.10;95.90
11591;DHT22;5851;54.050;9.974;2023-09-19T03:16:05;17.10;95.70
11591;DHT22;5851;54.050;9.974;2023-09-19T03:18:34;17.00;95.90
11591;DHT22;5851;54.050;9.974;2023-09-19T03:21:01;17.00;96.10
11591;DHT22;5851;54.050;9.974;2023-09-19T03:23:28;16.90;95.90
11591;DHT22;5851;54.050;9.974;2023-09-19T03:25:56;16.90;95.70
11591;DHT22;5851;54.050;9.974;2023-09-19T03:28:26;16.90;95.60
11591;DHT22;5851;54.050;9.974;2023-09-19T03:31:00;16.90;95.30
11591;DHT22;5851;54.050;9.974;2023-09-19T03:33:27;16.90;95.50
11591;DHT22;5851;54.050;9.974;2023-09-19T03:35:57;17.00;95.20
11591;DHT22;5851;54.050;9.974;2023-09-19T03:38:24;16.80;95.10
11591;DHT22;5851;54.050;9.974;2023-09-19T03:40:51;16.80;95.20
11591;DHT22;5851;54.050;9.974;2023-09-19T03:43:18;16.70;95.00
11591;DHT22;5851;54.050;9.974;2023-09-19T03:45:47;16.80;95.20
11591;DHT22;5851;54.050;9.974;2023-09-19T03:48:14;16.70;94.90
11591;DHT22;5851;54.050;9.974;2023-09-19T03:50:41;16.70;95.00
11591;DHT22;5851;54.050;9.974;2023-09-19T03:53:09;16.80;94.70
11591;DHT22;5851;54.050;9.974;2023-09-19T03:55:36;16.60;94.10
11591;DHT22;5851;54.050;9.974;2023-09-19T03:58:04;16.70;94.20
11591;DHT22;5851;54.050;9.974;2023-09-19T04:00:31;16.60;93.80
11591;DHT22;5851;54.050;9.974;2023-09-19T04:03:01;16.60;94.20
11591;DHT22;5851;54.050;9.974;2023-09-19T04:05:31;16.50;93.70
11591;DHT22;5851;54.050;9.974;2023-09-19T04:07:59;16.50;94.20
11591;DHT22;5851;54.050;9.974;2023-09-19T04:10:26;16.60;94.00
11591;DHT22;5851;54.050;9.974;2023-09-19T04:12:54;16.50;93.80
11591;DHT22;5851;54.050;9.974;2023-09-19T04:15:21;16.50;94.00
11591;DHT22;5851;54.050;9.974;2023-09-19T04:17:49;16.50;93.70
11591;DHT22;5851;54.050;9.974;2023-09-19T04:20:17;16.50;93.80
11591;DHT22;5851;54.050;9.974;2023-09-19T04:22:45;16.50;93.60
11591;DHT22;5851;54.050;9.974;2023-09-19T04:25:13;16.40;93.60
11591;DHT22;5851;54.050;9.974;2023-09-19T04:27:40;16.40;93.80
11591;DHT22;5851;54.050;9.974;2023-09-19T04:30:08;16.40;93.90
11591;DHT22;5851;54.050;9.974;2023-09-19T04:32:37;16.40;93.40
11591;DHT22;5851;54.050;9.974;2023-09-19T04:35:06;16.30;93.90
11591;DHT22;5851;54.050;9.974;2023-09-19T04:37:37;16.30;93.90
11591;DHT22;5851;54.050;9.974;2023-09-19T04:40:06;16.30;93.70
11591;DHT22;5851;54.050;9.974;2023-09-19T04:42:38;16.30;93.50
11591;DHT22;5851;54.050;9.974;2023-09-19T04:45:06;16.30;93.90
11591;DHT22;5851;54.050;9.974;2023-09-19T04:47:35;16.30;93.70
11591;DHT22;5851;54.050;9.974;2023-09-19T04:50:07;16.30;94.10
11591;DHT22;5851;54.050;9.974;2023-09-19T04:52:39;16.30;93.70
11591;DHT22;5851;54.050;9.974;2023-09-19T04:55:10;16.20;93.40
11591;DHT22;5851;54.050;9.974;2023-09-19T04:57:43;16.20;93.60
11591;DHT22;5851;54.050;9.974;2023-09-19T05:00:12;16.20;93.60
11591;DHT22;5851;54.050;9.974;2023-09-19T05:02:40;16.30;93.50
11591;DHT22;5851;54.050;9.974;2023-09-19T05:05:07;16.30;93.20
11591;DHT22;5851;54.050;9.974;2023-09-19T05:07:35;16.10;93.30
11591;DHT22;5851;54.050;9.974;2023-09-19T05:10:05;16.10;93.10
11591;DHT22;5851;54.050;9.974;2023-09-19T05:12:33;16.00;93.40
11591;DHT22;5851;54.050;9.974;2023-09-19T05:15:00;16.10;93.50
11591;DHT22;5851;54.050;9.974;2023-09-19T05:17:28;16.00;93.30
11591;DHT22;5851;54.050;9.974;2023-09-19T05:19:55;16.00;93.10
11591;DHT22;5851;54.050;9.974;2023-09-19T05:22:23;15.90;93.20
11591;DHT22;5851;54.050;9.974;2023-09-19T05:24:51;15.90;93.30
11591;DHT22;5851;54.050;9.974;2023-09-19T05:27:19;15.90;93.40
11591;DHT22;5851;54.050;9.974;2023-09-19T05:29:47;15.90;93.00
11591;DHT22;5851;54.050;9.974;2023-09-19T05:32:16;16.00;93.20
11591;DHT22;5851;54.050;9.974;2023-09-19T05:34:43;15.90;93.20
11591;DHT22;5851;54.050;9.974;2023-09-19T05:37:10;15.80;93.40
11591;DHT22;5851;54.050;9.974;2023-09-19T05:39:37;15.80;93.40
11591;DHT22;5851;54.050;9.974;2023-09-19T05:42:04;15.80;93.30
11591;DHT22;5851;54.050;9.974;2023-09-19T05:44:32;15.90;93.30
11591;DHT22;5851;54.050;9.974;2023-09-19T05:46:59;15.80;93.30
11591;DHT22;5851;54.050;9.974;2023-09-19T05:49:26;15.80;93.20
11591;DHT22;5851;54.050;9.974;2023-09-19T05:51:53;15.80;93.20
11591;DHT22;5851;54.050;9.974;2023-09-19T05:54:22;15.80;93.20
11591;DHT22;5851;54.050;9.974;2023-09-19T05:56:49;15.80;93.30
11591;DHT22;5851;54.050;9.974;2023-09-19T05:59:18;15.80;93.30
11591;DHT22;5851;54.050;9.974;2023-09-19T06:01:46;15.80;93.30
11591;DHT22;5851;54.050;9.974;2023-09-19T06:04:13;15.70;93.40
11591;DHT22;5851;54.050;9.974;2023-09-19T06:06:40;15.70;93.30
11591;DHT22;5851;54.050;9.974;2023-09-19T06:09:08;15.70;93.40
11591;DHT22;5851;54.050;9.974;2023-09-19T06:11:35;15.80;93.50
11591;DHT22;5851;54.050;9.974;2023-09-19T06:14:02;15.80;93.70
11591;DHT22;5851;54.050;9.974;2023-09-19T06:16:29;15.80;93.30
11591;DHT22;5851;54.050;9.974;2023-09-19T06:18:59;15.80;93.30
11591;DHT22;5851;54.050;9.974;2023-09-19T06:21:27;15.80;93.40
11591;DHT22;5851;54.050;9.974;2023-09-19T06:23:53;15.70;93.60
11591;DHT22;5851;54.050;9.974;2023-09-19T06:26:20;15.80;93.50
11591;DHT22;5851;54.050;9.974;2023-09-19T06:28:47;15.80;93.40
11591;DHT22;5851;54.050;9.974;2023-09-19T06:31:14;15.90;93.30
11591;DHT22;5851;54.050;9.974;2023-09-19T06:33:41;15.80;93.20
11591;DHT22;5851;54.050;9.974;2023-09-19T06:36:10;15.70;93.50
11591;DHT22;5851;54.050;9.974;2023-09-19T06:38:37;15.80;93.30
11591;DHT22;5851;54.050;9.974;2023-09-19T06:41:05;15.80;93.20
11591;DHT22;5851;54.050;9.974;2023-09-19T06:43:32;15.80;92.90
11591;DHT22;5851;54.050;9.974;2023-09-19T06:46:00;15.80;93.10
11591;DHT22;5851;54.050;9.974;2023-09-19T06:48:27;15.70;93.10
11591;DHT22;5851;54.050;9.974;2023-09-19T06:50:55;15.80;93.10
11591;DHT22;5851;54.050;9.974;2023-09-19T06:53:25;15.80;93.00
11591;DHT22;5851;54.050;9.974;2023-09-19T06:55:52;15.80;93.10
11591;DHT22;5851;54.050;9.974;2023-09-19T06:58:19;15.80;92.60
11591;DHT22;5851;54.050;9.974;2023-09-19T07:00:46;15.80;92.80
11591;DHT22;5851;54.050;9.974;2023-09-19T07:03:16;15.90;92.90
11591;DHT22;5851;54.050;9.974;2023-09-19T07:05:47;15.80;92.70
11591;DHT22;5851;54.050;9.974;2023-09-19T07:08:14;15.90;92.90
11591;DHT22;5851;54.050;9.974;2023-09-19T07:10:43;15.90;92.70
11591;DHT22;5851;54.050;9.974;2023-09-19T07:13:14;15.90;92.80
11591;DHT22;5851;54.050;9.974;2023-09-19T07:15:43;15.90;92.90
11591;DHT22;5851;54.050;9.974;2023-09-19T07:18:13;15.90;93.00
11591;DHT22;5851;54.050;9.974;2023-09-19T07:20:41;15.90;92.90
11591;DHT22;5851;54.050;9.974;2023-09-19T07:23:11;15.90;92.60
11591;DHT22;5851;54.050;9.974;2023-09-19T07:25:40;15.90;92.80
11591;DHT22;5851;54.050;9.974;2023-09-19T07:28:11;16.00;92.60
11591;DHT22;5851;54.050;9.974;2023-09-19T07:30:38;15.90;92.60
11591;DHT22;5851;54.050;9.974;2023-09-19T07:33:07;16.00;92.70
11591;DHT22;5851;54.050;9.974;2023-09-19T07:35:37;16.00;92.70
11591;DHT22;5851;54.050;9.974;2023-09-19T07:38:05;16.00;92.70
11591;DHT22;5851;54.050;9.974;2023-09-19T07:40:33;16.00;92.70
11591;DHT22;5851;54.050;9.974;2023-09-19T07:43:00;16.00;92.80
11591;DHT22;5851;54.050;9.974;2023-09-19T07:45:28;15.90;92.60
11591;DHT22;5851;54.050;9.974;2023-09-19T07:47:55;15.90;92.40
11591;DHT22;5851;54.050;9.974;2023-09-19T07:50:23;15.90;92.50
11591;DHT22;5851;54.050;9.974;2023-09-19T07:52:52;15.90;92.90
11591;DHT22;5851;54.050;9.974;2023-09-19T07:55:20;15.90;92.80
11591;DHT22;5851;54.050;9.974;2023-09-19T07:57:49;16.00;92.70
11591;DHT22;5851;54.050;9.974;2023-09-19T08:00:16;16.00;92.90
11591;DHT22;5851;54.050;9.974;2023-09-19T08:02:44;15.90;92.80
11591;DHT22;5851;54.050;9.974;2023-09-19T08:05:13;15.90;93.00
11591;DHT22;5851;54.050;9.974;2023-09-19T08:07:43;16.00;92.90
11591;DHT22;5851;54.050;9.974;2023-09-19T08:10:11;15.90;92.70
11591;DHT22;5851;54.050;9.974;2023-09-19T08:12:39;15.90;93.00
11591;DHT22;5851;54.050;9.974;2023-09-19T08:15:12;16.00;93.10
11591;DHT22;5851;54.050;9.974;2023-09-19T08:17:39;15.90;93.10
11591;DHT22;5851;54.050;9.974;2023-09-19T08:20:08;16.00;93.00
11591;DHT22;5851;54.050;9.974;2023-09-19T08:22:43;15.90;93.10
11591;DHT22;5851;54.050;9.974;2023-09-19T08:25:12;16.00;93.10
11591;DHT22;5851;54.050;9.974;2023-09-19T08:27:38;15.90;93.10
11591;DHT22;5851;54.050;9.974;2023-09-19T08:30:06;16.00;93.30
11591;DHT22;5851;54.050;9.974;2023-09-19T08:32:33;15.90;93.20
11591;DHT22;5851;54.050;9.974;2023-09-19T08:35:00;16.00;93.30
11591;DHT22;5851;54.050;9.974;2023-09-19T08:37:28;16.00;93.20
11591;DHT22;5851;54.050;9.974;2023-09-19T08:39:55;16.00;93.20
11591;DHT22;5851;54.050;9.974;2023-09-19T08:42:23;16.00;93.20
11591;DHT22;5851;54.050;9.974;2023-09-19T08:44:51;16.00;93.40
11591;DHT22;5851;54.050;9.974;2023-09-19T08:47:29;16.10;93.50
11591;DHT22;5851;54.050;9.974;2023-09-19T08:50:04;16.00;93.10
11591;DHT22;5851;54.050;9.974;2023-09-19T08:52:42;16.10;93.10
11591;DHT22;5851;54.050;9.974;2023-09-19T08:55:12;16.00;93.00
11591;DHT22;5851;54.050;9.974;2023-09-19T08:57:46;16.00;92.90
11591;DHT22;5851;54.050;9.974;2023-09-19T09:00:15;16.00;93.00
11591;DHT22;5851;54.050;9.974;2023-09-19T09:02:44;16.00;93.00
11591;DHT22;5851;54.050;9.974;2023-09-19T09:05:13;16.00;92.90
11591;DHT22;5851;54.050;9.974;2023-09-19T09:07:43;16.00;92.90
11591;DHT22;5851;54.050;9.974;2023-09-19T09:10:11;16.10;92.80
11591;DHT22;5851;54.050;9.974;2023-09-19T09:12:38;16.00;92.90
11591;DHT22;5851;54.050;9.974;2023-09-19T09:15:07;16.10;93.00
11591;DHT22;5851;54.050;9.974;2023-09-19T09:17:37;16.00;93.10
11591;DHT22;5851;54.050;9.974;2023-09-19T09:20:05;16.10;93.10
11591;DHT22;5851;54.050;9.974;2023-09-19T09:22:33;16.10;93.10
11591;DHT22;5851;54.050;9.974;2023-09-19T09:25:03;16.10;93.00
11591;DHT22;5851;54.050;9.974;2023-09-19T09:27:31;16.00;92.90
11591;DHT22;5851;54.050;9.974;2023-09-19T09:29:58;16.10;93.00
11591;DHT22;5851;54.050;9.974;2023-09-19T09:32:26;16.10;92.80
11591;DHT22;5851;54.050;9.974;2023-09-19T09:34:56;16.10;92.90
11591;DHT22;5851;54.050;9.974;2023-09-19T09:37:24;16.10;92.80
11591;DHT22;5851;54.050;9.974;2023-09-19T09:39:53;16.10;92.90
11591;DHT22;5851;54.050;9.974;2023-09-19T09:42:33;16.10;93.00
11591;DHT22;5851;54.050;9.974;2023-09-19T09:45:15;16.20;93.00
11591;DHT22;5851;54.050;9.974;2023-09-19T09:47:43;16.30;92.90
11591;DHT22;5851;54.050;9.974;2023-09-19T09:50:27;16.30;93.00
11591;DHT22;5851;54.050;9.974;2023-09-19T09:53:19;16.30;92.80
11591;DHT22;5851;54.050;9.974;2023-09-19T09:55:58;16.40;92.90
11591;DHT22;5851;54.050;9.974;2023-09-19T09:58:27;16.40;92.20
11591;DHT22;5851;54.050;9.974;2023-09-19T10:00:57;16.40;92.80
11591;DHT22;5851;54.050;9.974;2023-09-19T10:03:34;16.30;92.40
11591;DHT22;5851;54.050;9.974;2023-09-19T10:06:06;16.30;92.50
11591;DHT22;5851;54.050;9.974;2023-09-19T10:09:01;16.30;92.50
11591;DHT22;5851;54.050;9.974;2023-09-19T10:11:41;16.40;92.40
11591;DHT22;5851;54.050;9.974;2023-09-19T10:14:12;16.40;92.10
11591;DHT22;5851;54.050;9.974;2023-09-19T10:16:41;16.40;92.20
11591;DHT22;5851;54.050;9.974;2023-09-19T10:19:15;16.40;91.90
11591;DHT22;5851;54.050;9.974;2023-09-19T10:21:42;16.50;92.00
11591;DHT22;5851;54.050;9.974;2023-09-19T10:24:11;16.40;91.80
11591;DHT22;5851;54.050;9.974;2023-09-19T10:26:42;16.40;91.80
11591;DHT22;5851;54.050;9.974;2023-09-19T10:29:13;16.40;91.80
11591;DHT22;5851;54.050;9.974;2023-09-19T10:31:42;16.40;91.30
11591;DHT22;5851;54.050;9.974;2023-09-19T10:34:14;16.40;91.80
11591;DHT22;5851;54.050;9.974;2023-09-19T10:36:44;16.50;91.60
11591;DHT22;5851;54.050;9.974;2023-09-19T10:39:14;16.50;91.40
11591;DHT22;5851;54.050;9.974;2023-09-19T10:41:49;16.50;91.50
11591;DHT22;5851;54.050;9.974;2023-09-19T10:44:21;16.50;91.20
11591;DHT22;5851;54.050;9.974;2023-09-19T10:46:51;16.50;91.20
11591;DHT22;5851;54.050;9.974;2023-09-19T10:49:19;16.50;91.00
11591;DHT22;5851;54.050;9.974;2023-09-19T10:51:47;16.50;90.60
11591;DHT22;5851;54.050;9.974;2023-09-19T10:54:17;16.60;90.90
11591;DHT22;5851;54.050;9.974;2023-09-19T10:56:49;16.60;90.60
11591;DHT22;5851;54.050;9.974;2023-09-19T10:59:18;16.70;90.30
11591;DHT22;5851;54.050;9.974;2023-09-19T11:01:49;16.70;90.50
11591;DHT22;5851;54.050;9.974;2023-09-19T11:04:26;16.70;90.30
11591;DHT22;5851;54.050;9.974;2023-09-19T11:07:04;16.70;90.10
11591;DHT22;5851;54.050;9.974;2023-09-19T11:09:45;16.70;89.90
11591;DHT22;5851;54.050;9.974;2023-09-19T11:12:24;16.80;90.00
11591;DHT22;5851;54.050;9.974;2023-09-19T11:18:56;16.80;89.50
11591;DHT22;5851;54.050;9.974;2023-09-19T11:21:56;16.80;88.20
11591;DHT22;5851;54.050;9.974;2023-09-19T11:24:30;16.80;87.50
11591;DHT22;5851;54.050;9.974;2023-09-19T11:27:12;16.80;88.70
11591;DHT22;5851;54.050;9.974;2023-09-19T11:29:40;16.80;88.60
11591;DHT22;5851;54.050;9.974;2023-09-19T11:32:07;16.80;88.80
11591;DHT22;5851;54.050;9.974;2023-09-19T11:34:47;16.90;89.10
11591;DHT22;5851;54.050;9.974;2023-09-19T11:40:38;16.80;89.80
11591;DHT22;5851;54.050;9.974;2023-09-19T11:43:30;16.80;90.00
11591;DHT22;5851;54.050;9.974;2023-09-19T11:46:08;16.80;90.30
11591;DHT22;5851;54.050;9.974;2023-09-19T11:48:35;16.90;90.00
11591;DHT22;5851;54.050;9.974;2023-09-19T11:51:12;17.00;90.30
11591;DHT22;5851;54.050;9.974;2023-09-19T11:53:45;17.00;90.20
11591;DHT22;5851;54.050;9.974;2023-09-19T11:56:14;17.00;90.10
11591;DHT22;5851;54.050;9.974;2023-09-19T11:58:43;17.00;89.00
11591;DHT22;5851;54.050;9.974;2023-09-19T12:01:13;17.00;89.10
11591;DHT22;5851;54.050;9.974;2023-09-19T12:03:43;17.00;89.20
11591;DHT22;5851;54.050;9.974;2023-09-19T12:06:15;17.00;89.00
11591;DHT22;5851;54.050;9.974;2023-09-19T12:08:43;17.00;88.70
11591;DHT22;5851;54.050;9.974;2023-09-19T12:11:13;17.00;88.30
11591;DHT22;5851;54.050;9.974;2023-09-19T12:13:42;17.00;88.60
11591;DHT22;5851;54.050;9.974;2023-09-19T12:16:14;17.00;89.10
11591;DHT22;5851;54.050;9.974;2023-09-19T12:18:42;17.00;89.20
11591;DHT22;5851;54.050;9.974;2023-09-19T12:21:23;17.10;89.20
11591;DHT22;5851;54.050;9.974;2023-09-19T12:24:05;17.10;89.50
11591;DHT22;5851;54.050;9.974;2023-09-19T12:26:42;17.10;89.10
11591;DHT22;5851;54.050;9.974;2023-09-19T12:29:14;17.10;88.90
11591;DHT22;5851;54.050;9.974;2023-09-19T12:31:53;17.10;88.80
11591;DHT22;5851;54.050;9.974;2023-09-19T12:34:24;17.10;88.30
11591;DHT22;5851;54.050;9.974;2023-09-19T12:37:10;17.10;89.10
11591;DHT22;5851;54.050;9.974;2023-09-19T12:39:46;17.10;88.00
11591;DHT22;5851;54.050;9.974;2023-09-19T12:42:17;17.10;89.00
11591;DHT22;5851;54.050;9.974;2023-09-19T12:44:46;17.10;88.90
11591;DHT22;5851;54.050;9.974;2023-09-19T12:47:14;17.10;88.10
11591;DHT22;5851;54.050;9.974;2023-09-19T12:50:07;17.10;88.30
11591;DHT22;5851;54.050;9.974;2023-09-19T12:52:41;17.10;87.20
11591;DHT22;5851;54.050;9.974;2023-09-19T12:55:19;17.10;87.40
11591;DHT22;5851;54.050;9.974;2023-09-19T12:57:59;17.10;86.80
11591;DHT22;5851;54.050;9.974;2023-09-19T13:00:33;17.20;88.20
11591;DHT22;5851;54.050;9.974;2023-09-19T13:03:15;17.20;87.10
11591;DHT22;5851;54.050;9.974;2023-09-19T13:05:51;17.20;87.00
11591;DHT22;5851;54.050;9.974;2023-09-19T13:08:25;17.20;86.90
11591;DHT22;5851;54.050;9.974;2023-09-19T13:11:04;17.20;86.30
11591;DHT22;5851;54.050;9.974;2023-09-19T13:13:36;17.30;87.10
11591;DHT22;5851;54.050;9.974;2023-09-19T13:16:03;17.30;86.50
11591;DHT22;5851;54.050;9.974;2023-09-19T13:18:42;17.40;86.30
11591;DHT22;5851;54.050;9.974;2023-09-19T13:21:11;17.40;85.60
11591;DHT22;5851;54.050;9.974;2023-09-19T13:23:42;17.40;85.60
11591;DHT22;5851;54.050;9.974;2023-09-19T13:26:10;17.40;85.80
11591;DHT22;5851;54.050;9.974;2023-09-19T13:28:38;17.40;86.30
11591;DHT22;5851;54.050;9.974;2023-09-19T13:31:05;17.40;86.20
11591;DHT22;5851;54.050;9.974;2023-09-19T13:33:33;17.50;86.20
11591;DHT22;5851;54.050;9.974;2023-09-19T13:36:01;17.40;85.10
11591;DHT22;5851;54.050;9.974;2023-09-19T13:38:28;17.40;85.00
11591;DHT22;5851;54.050;9.974;2023-09-19T13:40:56;17.50;84.50
11591;DHT22;5851;54.050;9.974;2023-09-19T13:43:24;17.40;84.40
11591;DHT22;5851;54.050;9.974;2023-09-19T13:45:51;17.40;84.40
11591;DHT22;5851;54.050;9.974;2023-09-19T13:48:18;17.40;84.70
11591;DHT22;5851;54.050;9.974;2023-09-19T13:50:48;17.40;84.50
11591;DHT22;5851;54.050;9.974;2023-09-19T13:53:15;17.50;84.50
11591;DHT22;5851;54.050;9.974;2023-09-19T13:55:43;17.50;84.20
11591;DHT22;5851;54.050;9.974;2023-09-19T13:58:12;17.50;83.40
11591;DHT22;5851;54.050;9.974;2023-09-19T14:00:38;17.50;84.50
11591;DHT22;5851;54.050;9.974;2023-09-19T14:03:05;17.50;84.40
11591;DHT22;5851;54.050;9.974;2023-09-19T14:05:32;17.40;84.60
11591;DHT22;5851;54.050;9.974;2023-09-19T14:07:59;17.40;84.00
11591;DHT22;5851;54.050;9.974;2023-09-19T14:10:28;17.50;83.80
11591;DHT22;5851;54.050;9.974;2023-09-19T14:12:57;17.40;84.30
11591;DHT22;5851;54.050;9.974;2023-09-19T14:15:26;17.50;82.70
11591;DHT22;5851;54.050;9.974;2023-09-19T14:17:56;17.50;83.00
11591;DHT22;5851;54.050;9.974;2023-09-19T14:20:24;17.50;83.40
11591;DHT22;5851;54.050;9.974;2023-09-19T14:22:52;17.50;83.70
11591;DHT22;5851;54.050;9.974;2023-09-19T14:25:19;17.50;83.80
11591;DHT22;5851;54.050;9.974;2023-09-19T14:27:46;17.50;84.30
11591;DHT22;5851;54.050;9.974;2023-09-19T14:30:14;17.50;83.90
11591;DHT22;5851;54.050;9.974;2023-09-19T14:32:42;17.50;82.40
11591;DHT22;5851;54.050;9.974;2023-09-19T14:35:09;17.50;82.90
11591;DHT22;5851;54.050;9.974;2023-09-19T14:37:37;17.40;83.10
11591;DHT22;5851;54.050;9.974;2023-09-19T14:40:06;17.50;81.40
11591;DHT22;5851;54.050;9.974;2023-09-19T14:42:35;17.50;83.80
11591;DHT22;5851;54.050;9.974;2023-09-19T14:45:05;17.50;83.00
11591;DHT22;5851;54.050;9.974;2023-09-19T14:47:32;17.50;84.20
11591;DHT22;5851;54.050;9.974;2023-09-19T14:50:01;17.40;84.20
11591;DHT22;5851;54.050;9.974;2023-09-19T14:52:32;17.40;83.70
11591;DHT22;5851;54.050;9.974;2023-09-19T14:55:00;17.40;83.90
11591;DHT22;5851;54.050;9.974;2023-09-19T14:57:27;17.40;84.40
11591;DHT22;5851;54.050;9.974;2023-09-19T14:59:55;17.30;83.70
11591;DHT22;5851;54.050;9.974;2023-09-19T15:02:22;17.30;84.40
11591;DHT22;5851;54.050;9.974;2023-09-19T15:04:49;17.30;84.10
11591;DHT22;5851;54.050;9.974;2023-09-19T15:07:18;17.30;84.20
11591;DHT22;5851;54.050;9.974;2023-09-19T15:09:45;17.30;84.80
11591;DHT22;5851;54.050;9.974;2023-09-19T15:12:12;17.30;85.30
11591;DHT22;5851;54.050;9.974;2023-09-19T15:14:40;17.30;84.80
11591;DHT22;5851;54.050;9.974;2023-09-19T15:17:08;17.30;85.00
11591;DHT22;5851;54.050;9.974;2023-09-19T15:19:36;17.30;85.70
11591;DHT22;5851;54.050;9.974;2023-09-19T15:26:34;17.30;87.60
11591;DHT22;5851;54.050;9.974;2023-09-19T15:29:05;17.20;87.80
11591;DHT22;5851;54.050;9.974;2023-09-19T15:31:32;17.20;88.30
11591;DHT22;5851;54.050;9.974;2023-09-19T15:34:02;17.20;89.00
11591;DHT22;5851;54.050;9.974;2023-09-19T15:36:29;17.20;88.90
11591;DHT22;5851;54.050;9.974;2023-09-19T15:38:58;17.10;88.90
11591;DHT22;5851;54.050;9.974;2023-09-19T15:41:26;17.10;89.80
11591;DHT22;5851;54.050;9.974;2023-09-19T15:43:56;17.20;90.00
11591;DHT22;5851;54.050;9.974;2023-09-19T15:46:24;17.20;90.00
11591;DHT22;5851;54.050;9.974;2023-09-19T15:48:52;17.20;89.70
11591;DHT22;5851;54.050;9.974;2023-09-19T15:51:19;17.20;90.00
11591;DHT22;5851;54.050;9.974;2023-09-19T15:53:48;17.10;89.50
11591;DHT22;5851;54.050;9.974;2023-09-19T15:56:15;17.20;90.10
11591;DHT22;5851;54.050;9.974;2023-09-19T15:58:44;17.20;90.00
11591;DHT22;5851;54.050;9.974;2023-09-19T16:01:12;17.20;90.00
11591;DHT22;5851;54.050;9.974;2023-09-19T16:03:43;17.20;89.30
11591;DHT22;5851;54.050;9.974;2023-09-19T16:06:13;17.20;90.10
11591;DHT22;5851;54.050;9.974;2023-09-19T16:08:40;17.30;90.10
11591;DHT22;5851;54.050;9.974;2023-09-19T16:11:08;17.20;89.80
11591;DHT22;5851;54.050;9.974;2023-09-19T16:13:36;17.20;89.90
11591;DHT22;5851;54.050;9.974;2023-09-19T16:16:03;17.20;89.50